sensor_id;sensor_type;location;lat;lon;timestamp;P1;durP1;ratioP1;P2;durP2;ratioP2
24901;SDS011;31328;51.402;0.016;2022-07-09T00:00:28;2.95;;;1.05;;
24901;SDS011;31328;51.402;0.016;2022-07-09T00:02:55;2.83;;;0.90;;
24901;SDS011;31328;51.402;0.016;2022-07-09T00:05:21;1.27;;;0.90;;
24901;SDS011;31328;51.402;0.016;2022-07-09T00:07:47;1.50;;;0.80;;
24901;SDS011;31328;51.402;0.016;2022-07-09T00:10:14;1.30;;;0.90;;
24901;SDS011;31328;51.402;0.016;2022-07-09T00:12:40;1.70;;;0.73;;
24901;SDS011;31328;51.402;0.016;2022-07-09T00:15:06;1.15;;;0.80;;
24901;SDS011;31328;51.402;0.016;2022-07-09T00:17:33;1.15;;;0.90;;
24901;SDS011;31328;51.402;0.016;2022-07-09T00:19:59;1.13;;;0.80;;
24901;SDS011;31328;51.402;0.016;2022-07-09T00:22:28;1.23;;;1.00;;
24901;SDS011;31328;51.402;0.016;2022-07-09T00:24:54;0.93;;;0.70;;
24901;SDS011;31328;51.402;0.016;2022-07-09T00:27:21;1.42;;;1.05;;
24901;SDS011;31328;51.402;0.016;2022-07-09T00:29:47;1.67;;;1.10;;
24901;SDS011;31328;51.402;0.016;2022-07-09T00:32:14;1.42;;;1.10;;
24901;SDS011;31328;51.402;0.016;2022-07-09T00:34:40;2.00;;;1.10;;
24901;SDS011;31328;51.402;0.016;2022-07-09T00:37:06;1.58;;;1.10;;
24901;SDS011;31328;51.402;0.016;2022-07-09T00:39:33;3.80;;;1.10;;
24901;SDS011;31328;51.402;0.016;2022-07-09T00:44:30;1.30;;;1.17;;
24901;SDS011;31328;51.402;0.016;2022-07-09T00:46:56;1.77;;;0.90;;
24901;SDS011;31328;51.402;0.016;2022-07-09T00:49:24;2.20;;;1.00;;
24901;SDS011;31328;51.402;0.016;2022-07-09T00:51:53;1.52;;;0.95;;
24901;SDS011;31328;51.402;0.016;2022-07-09T00:54:20;1.85;;;1.13;;
24901;SDS011;31328;51.402;0.016;2022-07-09T00:56:47;1.27;;;0.90;;
24901;SDS011;31328;51.402;0.016;2022-07-09T00:59:14;1.30;;;0.88;;
24901;SDS011;31328;51.402;0.016;2022-07-09T01:01:42;1.88;;;0.93;;
24901;SDS011;31328;51.402;0.016;2022-07-09T01:04:08;1.63;;;1.10;;
24901;SDS011;31328;51.402;0.016;2022-07-09T01:06:35;1.20;;;0.82;;
24901;SDS011;31328;51.402;0.016;2022-07-09T01:09:02;2.17;;;0.90;;
24901;SDS011;31328;51.402;0.016;2022-07-09T01:11:29;1.45;;;1.05;;
24901;SDS011;31328;51.402;0.016;2022-07-09T01:13:56;1.67;;;0.82;;
24901;SDS011;31328;51.402;0.016;2022-07-09T01:16:30;1.55;;;0.90;;
24901;SDS011;31328;51.402;0.016;2022-07-09T01:18:57;1.35;;;0.82;;
24901;SDS011;31328;51.402;0.016;2022-07-09T01:21:23;2.05;;;1.00;;
24901;SDS011;31328;51.402;0.016;2022-07-09T01:23:50;1.42;;;0.95;;
24901;SDS011;31328;51.402;0.016;2022-07-09T01:26:17;1.23;;;0.90;;
24901;SDS011;31328;51.402;0.016;2022-07-09T01:28:48;1.27;;;0.90;;
24901;SDS011;31328;51.402;0.016;2022-07-09T01:31:15;1.33;;;0.93;;
24901;SDS011;31328;51.402;0.016;2022-07-09T01:33:41;3.03;;;1.20;;
24901;SDS011;31328;51.402;0.016;2022-07-09T01:36:08;1.13;;;0.90;;
24901;SDS011;31328;51.402;0.016;2022-07-09T01:38:35;3.03;;;1.55;;
24901;SDS011;31328;51.402;0.016;2022-07-09T01:41:02;2.08;;;0.90;;
24901;SDS011;31328;51.402;0.016;2022-07-09T01:43:29;2.25;;;0.90;;
24901;SDS011;31328;51.402;0.016;2022-07-09T01:45:56;1.13;;;0.90;;
24901;SDS011;31328;51.402;0.016;2022-07-09T01:48:26;1.60;;;1.00;;
24901;SDS011;31328;51.402;0.016;2022-07-09T01:50:54;1.17;;;0.90;;
24901;SDS011;31328;51.402;0.016;2022-07-09T01:53:21;1.73;;;1.27;;
24901;SDS011;31328;51.402;0.016;2022-07-09T01:55:47;1.23;;;0.90;;
24901;SDS011;31328;51.402;0.016;2022-07-09T01:58:14;1.13;;;0.90;;
24901;SDS011;31328;51.402;0.016;2022-07-09T02:00:40;2.08;;;0.60;;
24901;SDS011;31328;51.402;0.016;2022-07-09T02:03:07;1.13;;;0.70;;
24901;SDS011;31328;51.402;0.016;2022-07-09T02:05:33;2.45;;;0.90;;
24901;SDS011;31328;51.402;0.016;2022-07-09T02:08:00;1.77;;;1.08;;
24901;SDS011;31328;51.402;0.016;2022-07-09T02:10:26;1.10;;;0.93;;
24901;SDS011;31328;51.402;0.016;2022-07-09T02:12:53;0.88;;;0.60;;
24901;SDS011;31328;51.402;0.016;2022-07-09T02:15:19;1.58;;;0.90;;
24901;SDS011;31328;51.402;0.016;2022-07-09T02:17:45;1.35;;;0.70;;
24901;SDS011;31328;51.402;0.016;2022-07-09T02:20:12;1.30;;;0.70;;
24901;SDS011;31328;51.402;0.016;2022-07-09T02:22:38;2.08;;;0.60;;
24901;SDS011;31328;51.402;0.016;2022-07-09T02:25:04;0.80;;;0.57;;
24901;SDS011;31328;51.402;0.016;2022-07-09T02:27:31;0.80;;;0.63;;
24901;SDS011;31328;51.402;0.016;2022-07-09T02:29:58;1.33;;;0.60;;
24901;SDS011;31328;51.402;0.016;2022-07-09T02:32:24;1.02;;;0.63;;
24901;SDS011;31328;51.402;0.016;2022-07-09T02:34:51;0.98;;;0.88;;
24901;SDS011;31328;51.402;0.016;2022-07-09T02:37:17;1.42;;;0.65;;
24901;SDS011;31328;51.402;0.016;2022-07-09T02:39:43;1.20;;;0.77;;
24901;SDS011;31328;51.402;0.016;2022-07-09T02:42:10;1.38;;;0.65;;
24901;SDS011;31328;51.402;0.016;2022-07-09T02:44:36;0.82;;;0.60;;
24901;SDS011;31328;51.402;0.016;2022-07-09T02:47:03;1.40;;;0.73;;
24901;SDS011;31328;51.402;0.016;2022-07-09T02:49:29;1.48;;;0.70;;
24901;SDS011;31328;51.402;0.016;2022-07-09T02:51:56;0.88;;;0.55;;
24901;SDS011;31328;51.402;0.016;2022-07-09T02:54:23;1.25;;;0.77;;
24901;SDS011;31328;51.402;0.016;2022-07-09T02:56:49;1.05;;;0.80;;
24901;SDS011;31328;51.402;0.016;2022-07-09T02:59:16;1.90;;;1.00;;
24901;SDS011;31328;51.402;0.016;2022-07-09T03:01:42;1.27;;;0.55;;
24901;SDS011;31328;51.402;0.016;2022-07-09T03:04:08;0.70;;;0.60;;
24901;SDS011;31328;51.402;0.016;2022-07-09T03:06:53;2.10;;;0.60;;
24901;SDS011;31328;51.402;0.016;2022-07-09T03:09:20;1.67;;;0.77;;
24901;SDS011;31328;51.402;0.016;2022-07-09T03:11:46;1.70;;;0.70;;
24901;SDS011;31328;51.402;0.016;2022-07-09T03:14:13;1.85;;;0.80;;
24901;SDS011;31328;51.402;0.016;2022-07-09T03:16:39;1.15;;;0.70;;
24901;SDS011;31328;51.402;0.016;2022-07-09T03:19:05;2.35;;;0.80;;
24901;SDS011;31328;51.402;0.016;2022-07-09T03:21:32;1.10;;;0.60;;
24901;SDS011;31328;51.402;0.016;2022-07-09T03:23:58;1.52;;;0.68;;
24901;SDS011;31328;51.402;0.016;2022-07-09T03:26:25;1.20;;;0.60;;
24901;SDS011;31328;51.402;0.016;2022-07-09T03:28:51;0.90;;;0.75;;
24901;SDS011;31328;51.402;0.016;2022-07-09T03:31:17;1.45;;;0.93;;
24901;SDS011;31328;51.402;0.016;2022-07-09T03:33:44;0.95;;;0.80;;
24901;SDS011;31328;51.402;0.016;2022-07-09T03:36:10;1.20;;;1.00;;
24901;SDS011;31328;51.402;0.016;2022-07-09T03:38:37;1.25;;;1.00;;
24901;SDS011;31328;51.402;0.016;2022-07-09T03:41:03;2.50;;;0.80;;
24901;SDS011;31328;51.402;0.016;2022-07-09T03:43:30;2.40;;;0.80;;
24901;SDS011;31328;51.402;0.016;2022-07-09T03:45:56;0.80;;;0.68;;
24901;SDS011;31328;51.402;0.016;2022-07-09T03:48:22;1.42;;;0.95;;
24901;SDS011;31328;51.402;0.016;2022-07-09T03:50:49;2.67;;;0.93;;
24901;SDS011;31328;51.402;0.016;2022-07-09T03:53:15;1.30;;;0.90;;
24901;SDS011;31328;51.402;0.016;2022-07-09T03:55:42;1.08;;;0.70;;
24901;SDS011;31328;51.402;0.016;2022-07-09T03:58:08;1.92;;;1.05;;
24901;SDS011;31328;51.402;0.016;2022-07-09T04:00:35;1.55;;;0.90;;
24901;SDS011;31328;51.402;0.016;2022-07-09T04:03:01;1.10;;;0.88;;
24901;SDS011;31328;51.402;0.016;2022-07-09T04:05:27;1.00;;;0.90;;
24901;SDS011;31328;51.402;0.016;2022-07-09T04:07:54;1.85;;;0.88;;
24901;SDS011;31328;51.402;0.016;2022-07-09T04:10:20;1.10;;;0.82;;
24901;SDS011;31328;51.402;0.016;2022-07-09T04:12:46;2.03;;;0.82;;
24901;SDS011;31328;51.402;0.016;2022-07-09T04:15:13;1.00;;;0.70;;
24901;SDS011;31328;51.402;0.016;2022-07-09T04:17:39;2.00;;;1.10;;
24901;SDS011;31328;51.402;0.016;2022-07-09T04:20:06;1.90;;;1.00;;
24901;SDS011;31328;51.402;0.016;2022-07-09T04:22:33;1.00;;;0.90;;
24901;SDS011;31328;51.402;0.016;2022-07-09T04:24:59;1.25;;;1.00;;
24901;SDS011;31328;51.402;0.016;2022-07-09T04:27:25;1.67;;;0.98;;
24901;SDS011;31328;51.402;0.016;2022-07-09T04:29:52;1.60;;;0.70;;
24901;SDS011;31328;51.402;0.016;2022-07-09T04:32:18;2.13;;;1.20;;
24901;SDS011;31328;51.402;0.016;2022-07-09T04:34:45;1.60;;;1.17;;
24901;SDS011;31328;51.402;0.016;2022-07-09T04:37:11;1.35;;;0.90;;
24901;SDS011;31328;51.402;0.016;2022-07-09T04:39:37;1.23;;;0.80;;
24901;SDS011;31328;51.402;0.016;2022-07-09T04:42:04;1.77;;;0.90;;
24901;SDS011;31328;51.402;0.016;2022-07-09T04:44:30;2.35;;;0.93;;
24901;SDS011;31328;51.402;0.016;2022-07-09T04:46:57;1.13;;;0.73;;
24901;SDS011;31328;51.402;0.016;2022-07-09T04:49:24;2.03;;;0.90;;
24901;SDS011;31328;51.402;0.016;2022-07-09T04:51:50;1.38;;;1.02;;
24901;SDS011;31328;51.402;0.016;2022-07-09T04:54:17;1.33;;;0.85;;
24901;SDS011;31328;51.402;0.016;2022-07-09T04:56:43;2.75;;;0.77;;
24901;SDS011;31328;51.402;0.016;2022-07-09T04:59:09;2.17;;;1.23;;
24901;SDS011;31328;51.402;0.016;2022-07-09T05:01:36;2.38;;;1.20;;
24901;SDS011;31328;51.402;0.016;2022-07-09T05:04:02;2.53;;;1.20;;
24901;SDS011;31328;51.402;0.016;2022-07-09T05:06:29;2.17;;;1.25;;
24901;SDS011;31328;51.402;0.016;2022-07-09T05:08:55;2.40;;;1.38;;
24901;SDS011;31328;51.402;0.016;2022-07-09T05:11:21;1.33;;;0.98;;
24901;SDS011;31328;51.402;0.016;2022-07-09T05:13:47;2.25;;;1.20;;
24901;SDS011;31328;51.402;0.016;2022-07-09T05:16:14;2.05;;;0.98;;
24901;SDS011;31328;51.402;0.016;2022-07-09T05:18:40;1.70;;;1.20;;
24901;SDS011;31328;51.402;0.016;2022-07-09T05:21:07;1.67;;;1.10;;
24901;SDS011;31328;51.402;0.016;2022-07-09T05:23:33;2.42;;;1.42;;
24901;SDS011;31328;51.402;0.016;2022-07-09T05:26:00;1.60;;;0.95;;
24901;SDS011;31328;51.402;0.016;2022-07-09T05:28:26;1.73;;;1.10;;
24901;SDS011;31328;51.402;0.016;2022-07-09T05:30:53;2.28;;;1.20;;
24901;SDS011;31328;51.402;0.016;2022-07-09T05:33:19;1.58;;;1.10;;
24901;SDS011;31328;51.402;0.016;2022-07-09T05:35:46;1.90;;;1.20;;
24901;SDS011;31328;51.402;0.016;2022-07-09T05:38:12;1.77;;;0.95;;
24901;SDS011;31328;51.402;0.016;2022-07-09T05:40:38;2.05;;;1.25;;
24901;SDS011;31328;51.402;0.016;2022-07-09T05:43:05;2.33;;;1.58;;
24901;SDS011;31328;51.402;0.016;2022-07-09T05:45:31;2.15;;;1.13;;
24901;SDS011;31328;51.402;0.016;2022-07-09T05:47:57;3.35;;;1.60;;
24901;SDS011;31328;51.402;0.016;2022-07-09T05:50:24;1.50;;;1.30;;
24901;SDS011;31328;51.402;0.016;2022-07-09T05:52:50;2.88;;;1.50;;
24901;SDS011;31328;51.402;0.016;2022-07-09T05:55:17;2.45;;;1.58;;
24901;SDS011;31328;51.402;0.016;2022-07-09T05:57:43;1.50;;;1.40;;
24901;SDS011;31328;51.402;0.016;2022-07-09T06:00:09;3.05;;;1.27;;
24901;SDS011;31328;51.402;0.016;2022-07-09T06:02:36;3.13;;;1.20;;
24901;SDS011;31328;51.402;0.016;2022-07-09T06:05:02;1.65;;;1.17;;
24901;SDS011;31328;51.402;0.016;2022-07-09T06:07:29;2.50;;;1.30;;
24901;SDS011;31328;51.402;0.016;2022-07-09T06:09:55;2.95;;;1.30;;
24901;SDS011;31328;51.402;0.016;2022-07-09T06:12:22;3.03;;;1.20;;
24901;SDS011;31328;51.402;0.016;2022-07-09T06:14:48;1.80;;;1.50;;
24901;SDS011;31328;51.402;0.016;2022-07-09T06:17:15;1.70;;;1.20;;
24901;SDS011;31328;51.402;0.016;2022-07-09T06:19:41;1.88;;;1.05;;
24901;SDS011;31328;51.402;0.016;2022-07-09T06:22:08;2.30;;;1.10;;
24901;SDS011;31328;51.402;0.016;2022-07-09T06:24:41;1.38;;;0.88;;
24901;SDS011;31328;51.402;0.016;2022-07-09T06:27:07;1.90;;;1.17;;
24901;SDS011;31328;51.402;0.016;2022-07-09T06:29:34;1.33;;;0.98;;
24901;SDS011;31328;51.402;0.016;2022-07-09T06:32:00;1.73;;;0.88;;
24901;SDS011;31328;51.402;0.016;2022-07-09T06:34:26;1.98;;;1.27;;
24901;SDS011;31328;51.402;0.016;2022-07-09T06:36:53;1.52;;;0.80;;
24901;SDS011;31328;51.402;0.016;2022-07-09T06:39:19;1.13;;;1.00;;
24901;SDS011;31328;51.402;0.016;2022-07-09T06:44:32;1.67;;;1.13;;
24901;SDS011;31328;51.402;0.016;2022-07-09T06:46:59;1.88;;;0.90;;
24901;SDS011;31328;51.402;0.016;2022-07-09T06:49:25;3.13;;;1.33;;
24901;SDS011;31328;51.402;0.016;2022-07-09T06:51:52;2.47;;;1.30;;
24901;SDS011;31328;51.402;0.016;2022-07-09T06:54:18;1.95;;;0.98;;
24901;SDS011;31328;51.402;0.016;2022-07-09T06:56:44;2.55;;;1.20;;
24901;SDS011;31328;51.402;0.016;2022-07-09T06:59:12;2.22;;;1.20;;
24901;SDS011;31328;51.402;0.016;2022-07-09T07:01:38;1.63;;;1.05;;
24901;SDS011;31328;51.402;0.016;2022-07-09T07:04:05;1.13;;;0.85;;
24901;SDS011;31328;51.402;0.016;2022-07-09T07:06:32;0.93;;;0.70;;
24901;SDS011;31328;51.402;0.016;2022-07-09T07:08:58;1.50;;;0.80;;
24901;SDS011;31328;51.402;0.016;2022-07-09T07:11:25;0.70;;;0.70;;
24901;SDS011;31328;51.402;0.016;2022-07-09T07:13:51;1.05;;;0.82;;
24901;SDS011;31328;51.402;0.016;2022-07-09T07:16:17;1.77;;;0.82;;
24901;SDS011;31328;51.402;0.016;2022-07-09T07:18:44;1.00;;;0.70;;
24901;SDS011;31328;51.402;0.016;2022-07-09T07:21:10;1.25;;;0.90;;
24901;SDS011;31328;51.402;0.016;2022-07-09T07:23:36;1.02;;;0.70;;
24901;SDS011;31328;51.402;0.016;2022-07-09T07:26:03;0.88;;;0.60;;
24901;SDS011;31328;51.402;0.016;2022-07-09T07:28:29;0.82;;;0.65;;
24901;SDS011;31328;51.402;0.016;2022-07-09T07:30:56;1.85;;;0.70;;
24901;SDS011;31328;51.402;0.016;2022-07-09T07:33:22;1.15;;;0.70;;
24901;SDS011;31328;51.402;0.016;2022-07-09T07:35:49;1.40;;;0.70;;
24901;SDS011;31328;51.402;0.016;2022-07-09T07:38:15;1.63;;;0.93;;
24901;SDS011;31328;51.402;0.016;2022-07-09T07:40:42;1.00;;;0.60;;
24901;SDS011;31328;51.402;0.016;2022-07-09T07:43:11;1.23;;;0.60;;
24901;SDS011;31328;51.402;0.016;2022-07-09T07:45:38;0.52;;;0.50;;
24901;SDS011;31328;51.402;0.016;2022-07-09T07:48:04;0.82;;;0.43;;
24901;SDS011;31328;51.402;0.016;2022-07-09T07:50:31;0.85;;;0.52;;
24901;SDS011;31328;51.402;0.016;2022-07-09T07:52:58;1.75;;;0.80;;
24901;SDS011;31328;51.402;0.016;2022-07-09T07:55:25;0.80;;;0.77;;
24901;SDS011;31328;51.402;0.016;2022-07-09T07:57:51;1.13;;;0.60;;
24901;SDS011;31328;51.402;0.016;2022-07-09T08:00:18;0.77;;;0.47;;
24901;SDS011;31328;51.402;0.016;2022-07-09T08:02:44;1.17;;;0.55;;
24901;SDS011;31328;51.402;0.016;2022-07-09T08:05:10;1.15;;;0.50;;
24901;SDS011;31328;51.402;0.016;2022-07-09T08:07:38;0.68;;;0.52;;
24901;SDS011;31328;51.402;0.016;2022-07-09T08:10:04;0.85;;;0.85;;
24901;SDS011;31328;51.402;0.016;2022-07-09T08:12:31;0.68;;;0.50;;
24901;SDS011;31328;51.402;0.016;2022-07-09T08:14:58;0.85;;;0.50;;
24901;SDS011;31328;51.402;0.016;2022-07-09T08:17:24;0.77;;;0.50;;
24901;SDS011;31328;51.402;0.016;2022-07-09T08:19:51;0.85;;;0.50;;
24901;SDS011;31328;51.402;0.016;2022-07-09T08:22:17;0.57;;;0.40;;
24901;SDS011;31328;51.402;0.016;2022-07-09T08:24:44;0.40;;;0.30;;
24901;SDS011;31328;51.402;0.016;2022-07-09T08:27:10;0.93;;;0.43;;
24901;SDS011;31328;51.402;0.016;2022-07-09T08:29:36;0.73;;;0.40;;
24901;SDS011;31328;51.402;0.016;2022-07-09T08:32:03;0.40;;;0.30;;
24901;SDS011;31328;51.402;0.016;2022-07-09T08:34:31;0.68;;;0.20;;
24901;SDS011;31328;51.402;0.016;2022-07-09T08:36:57;0.52;;;0.40;;
24901;SDS011;31328;51.402;0.016;2022-07-09T08:39:24;0.47;;;0.40;;
24901;SDS011;31328;51.402;0.016;2022-07-09T08:41:50;0.50;;;0.30;;
24901;SDS011;31328;51.402;0.016;2022-07-09T08:44:18;0.57;;;0.35;;
24901;SDS011;31328;51.402;0.016;2022-07-09T08:46:45;0.50;;;0.30;;
24901;SDS011;31328;51.402;0.016;2022-07-09T08:49:13;0.22;;;0.20;;
24901;SDS011;31328;51.402;0.016;2022-07-09T08:51:41;1.13;;;0.40;;
24901;SDS011;31328;51.402;0.016;2022-07-09T08:54:09;0.63;;;0.40;;
24901;SDS011;31328;51.402;0.016;2022-07-09T08:56:36;0.60;;;0.50;;
24901;SDS011;31328;51.402;0.016;2022-07-09T08:59:02;0.85;;;0.55;;
24901;SDS011;31328;51.402;0.016;2022-07-09T09:01:29;0.47;;;0.35;;
24901;SDS011;31328;51.402;0.016;2022-07-09T09:03:55;0.70;;;0.50;;
24901;SDS011;31328;51.402;0.016;2022-07-09T09:06:22;0.90;;;0.60;;
24901;SDS011;31328;51.402;0.016;2022-07-09T09:08:52;0.93;;;0.70;;
24901;SDS011;31328;51.402;0.016;2022-07-09T09:11:21;0.70;;;0.50;;
24901;SDS011;31328;51.402;0.016;2022-07-09T09:13:51;0.35;;;0.32;;
24901;SDS011;31328;51.402;0.016;2022-07-09T09:16:19;1.13;;;0.70;;
24901;SDS011;31328;51.402;0.016;2022-07-09T09:18:51;1.58;;;0.60;;
24901;SDS011;31328;51.402;0.016;2022-07-09T09:21:19;0.30;;;0.30;;
24901;SDS011;31328;51.402;0.016;2022-07-09T09:23:48;2.00;;;0.50;;
24901;SDS011;31328;51.402;0.016;2022-07-09T09:26:15;1.48;;;0.75;;
24901;SDS011;31328;51.402;0.016;2022-07-09T09:28:55;0.43;;;0.43;;
24901;SDS011;31328;51.402;0.016;2022-07-09T09:31:26;0.60;;;0.47;;
24901;SDS011;31328;51.402;0.016;2022-07-09T09:33:55;0.60;;;0.50;;
24901;SDS011;31328;51.402;0.016;2022-07-09T09:36:34;0.75;;;0.63;;
24901;SDS011;31328;51.402;0.016;2022-07-09T09:39:34;1.42;;;0.50;;
24901;SDS011;31328;51.402;0.016;2022-07-09T09:41:55;0.50;;;0.50;;
24901;SDS011;31328;51.402;0.016;2022-07-09T09:44:25;0.93;;;0.45;;
24901;SDS011;31328;51.402;0.016;2022-07-09T09:46:52;0.50;;;0.50;;
24901;SDS011;31328;51.402;0.016;2022-07-09T09:49:20;0.68;;;0.40;;
24901;SDS011;31328;51.402;0.016;2022-07-09T09:54:17;2.67;;;0.60;;
24901;SDS011;31328;51.402;0.016;2022-07-09T09:56:44;0.60;;;0.57;;
24901;SDS011;31328;51.402;0.016;2022-07-09T09:59:11;1.25;;;0.50;;
24901;SDS011;31328;51.402;0.016;2022-07-09T10:01:41;1.20;;;0.68;;
24901;SDS011;31328;51.402;0.016;2022-07-09T10:04:09;1.38;;;0.60;;
24901;SDS011;31328;51.402;0.016;2022-07-09T10:06:36;0.93;;;0.60;;
24901;SDS011;31328;51.402;0.016;2022-07-09T10:09:04;1.27;;;0.70;;
24901;SDS011;31328;51.402;0.016;2022-07-09T10:11:45;1.23;;;0.68;;
24901;SDS011;31328;51.402;0.016;2022-07-09T10:17:12;1.10;;;0.60;;
24901;SDS011;31328;51.402;0.016;2022-07-09T10:19:53;1.60;;;0.60;;
24901;SDS011;31328;51.402;0.016;2022-07-09T10:22:21;0.68;;;0.40;;
24901;SDS011;31328;51.402;0.016;2022-07-09T10:24:50;0.80;;;0.50;;
24901;SDS011;31328;51.402;0.016;2022-07-09T10:27:17;0.60;;;0.50;;
24901;SDS011;31328;51.402;0.016;2022-07-09T10:32:34;0.60;;;0.57;;
24901;SDS011;31328;51.402;0.016;2022-07-09T10:35:06;1.42;;;0.50;;
24901;SDS011;31328;51.402;0.016;2022-07-09T10:37:34;0.80;;;0.57;;
24901;SDS011;31328;51.402;0.016;2022-07-09T10:40:13;0.47;;;0.47;;
24901;SDS011;31328;51.402;0.016;2022-07-09T10:45:21;1.05;;;0.55;;
24901;SDS011;31328;51.402;0.016;2022-07-09T10:47:54;0.95;;;0.75;;
24901;SDS011;31328;51.402;0.016;2022-07-09T10:50:23;0.80;;;0.60;;
24901;SDS011;31328;51.402;0.016;2022-07-09T10:52:51;1.40;;;0.55;;
24901;SDS011;31328;51.402;0.016;2022-07-09T10:55:21;0.50;;;0.40;;
24901;SDS011;31328;51.402;0.016;2022-07-09T10:57:49;1.13;;;0.80;;
24901;SDS011;31328;51.402;0.016;2022-07-09T11:00:16;1.30;;;0.80;;
24901;SDS011;31328;51.402;0.016;2022-07-09T11:02:55;0.70;;;0.70;;
24901;SDS011;31328;51.402;0.016;2022-07-09T11:05:26;0.60;;;0.60;;
24901;SDS011;31328;51.402;0.016;2022-07-09T11:07:54;1.20;;;0.60;;
24901;SDS011;31328;51.402;0.016;2022-07-09T11:10:25;1.70;;;0.80;;
24901;SDS011;31328;51.402;0.016;2022-07-09T11:12:54;0.82;;;0.68;;
24901;SDS011;31328;51.402;0.016;2022-07-09T11:15:22;0.77;;;0.60;;
24901;SDS011;31328;51.402;0.016;2022-07-09T11:17:58;1.20;;;0.82;;
24901;SDS011;31328;51.402;0.016;2022-07-09T11:20:30;2.00;;;0.80;;
24901;SDS011;31328;51.402;0.016;2022-07-09T11:22:59;1.30;;;1.02;;
24901;SDS011;31328;51.402;0.016;2022-07-09T11:25:26;1.15;;;0.70;;
24901;SDS011;31328;51.402;0.016;2022-07-09T11:27:54;0.70;;;0.70;;
24901;SDS011;31328;51.402;0.016;2022-07-09T11:30:26;0.98;;;0.80;;
24901;SDS011;31328;51.402;0.016;2022-07-09T11:32:53;1.27;;;0.63;;
24901;SDS011;31328;51.402;0.016;2022-07-09T11:35:37;0.95;;;0.68;;
24901;SDS011;31328;51.402;0.016;2022-07-09T11:38:05;1.02;;;0.93;;
24901;SDS011;31328;51.402;0.016;2022-07-09T11:40:34;0.93;;;0.70;;
24901;SDS011;31328;51.402;0.016;2022-07-09T11:43:01;1.52;;;0.73;;
24901;SDS011;31328;51.402;0.016;2022-07-09T11:45:28;2.47;;;0.85;;
24901;SDS011;31328;51.402;0.016;2022-07-09T11:48:08;1.50;;;0.77;;
24901;SDS011;31328;51.402;0.016;2022-07-09T11:50:44;0.82;;;0.70;;
24901;SDS011;31328;51.402;0.016;2022-07-09T11:56:03;0.70;;;0.65;;
24901;SDS011;31328;51.402;0.016;2022-07-09T11:58:29;0.60;;;0.60;;
24901;SDS011;31328;51.402;0.016;2022-07-09T12:00:56;1.55;;;0.70;;
24901;SDS011;31328;51.402;0.016;2022-07-09T12:03:26;0.70;;;0.70;;
24901;SDS011;31328;51.402;0.016;2022-07-09T12:05:54;1.20;;;1.00;;
24901;SDS011;31328;51.402;0.016;2022-07-09T12:08:27;1.48;;;0.75;;
24901;SDS011;31328;51.402;0.016;2022-07-09T12:10:57;0.70;;;0.65;;
24901;SDS011;31328;51.402;0.016;2022-07-09T12:13:24;1.40;;;0.73;;
24901;SDS011;31328;51.402;0.016;2022-07-09T12:15:51;0.70;;;0.55;;
24901;SDS011;31328;51.402;0.016;2022-07-09T12:18:17;1.92;;;0.70;;
24901;SDS011;31328;51.402;0.016;2022-07-09T12:20:44;1.08;;;0.63;;
24901;SDS011;31328;51.402;0.016;2022-07-09T12:23:10;0.82;;;0.70;;
24901;SDS011;31328;51.402;0.016;2022-07-09T12:25:36;1.17;;;0.60;;
24901;SDS011;31328;51.402;0.016;2022-07-09T12:28:03;0.73;;;0.70;;
24901;SDS011;31328;51.402;0.016;2022-07-09T12:30:29;1.33;;;0.77;;
24901;SDS011;31328;51.402;0.016;2022-07-09T12:32:56;0.77;;;0.68;;
24901;SDS011;31328;51.402;0.016;2022-07-09T12:35:25;0.80;;;0.80;;
24901;SDS011;31328;51.402;0.016;2022-07-09T12:37:53;0.88;;;0.73;;
24901;SDS011;31328;51.402;0.016;2022-07-09T12:40:21;1.33;;;0.80;;
24901;SDS011;31328;51.402;0.016;2022-07-09T12:42:48;1.70;;;0.80;;
24901;SDS011;31328;51.402;0.016;2022-07-09T12:45:15;0.93;;;0.65;;
24901;SDS011;31328;51.402;0.016;2022-07-09T12:47:41;1.00;;;0.73;;
24901;SDS011;31328;51.402;0.016;2022-07-09T12:50:08;0.70;;;0.60;;
24901;SDS011;31328;51.402;0.016;2022-07-09T12:52:35;0.90;;;0.80;;
24901;SDS011;31328;51.402;0.016;2022-07-09T12:55:03;0.88;;;0.80;;
24901;SDS011;31328;51.402;0.016;2022-07-09T12:57:30;0.75;;;0.70;;
24901;SDS011;31328;51.402;0.016;2022-07-09T12:59:57;1.60;;;0.80;;
24901;SDS011;31328;51.402;0.016;2022-07-09T13:02:23;1.15;;;1.00;;
24901;SDS011;31328;51.402;0.016;2022-07-09T13:04:50;1.10;;;0.63;;
24901;SDS011;31328;51.402;0.016;2022-07-09T13:07:16;0.95;;;0.70;;
24901;SDS011;31328;51.402;0.016;2022-07-09T13:09:43;1.30;;;0.90;;
24901;SDS011;31328;51.402;0.016;2022-07-09T13:12:09;3.13;;;0.70;;
24901;SDS011;31328;51.402;0.016;2022-07-09T13:14:36;1.40;;;0.80;;
24901;SDS011;31328;51.402;0.016;2022-07-09T13:17:02;0.80;;;0.70;;
24901;SDS011;31328;51.402;0.016;2022-07-09T13:19:28;0.73;;;0.70;;
24901;SDS011;31328;51.402;0.016;2022-07-09T13:21:55;0.82;;;0.80;;
24901;SDS011;31328;51.402;0.016;2022-07-09T13:24:21;1.75;;;1.00;;
24901;SDS011;31328;51.402;0.016;2022-07-09T13:26:48;1.02;;;0.63;;
24901;SDS011;31328;51.402;0.016;2022-07-09T13:29:14;1.23;;;0.80;;
24901;SDS011;31328;51.402;0.016;2022-07-09T13:31:41;0.80;;;0.65;;
24901;SDS011;31328;51.402;0.016;2022-07-09T13:34:07;0.65;;;0.50;;
24901;SDS011;31328;51.402;0.016;2022-07-09T13:36:33;1.13;;;0.50;;
24901;SDS011;31328;51.402;0.016;2022-07-09T13:39:00;0.90;;;0.60;;
24901;SDS011;31328;51.402;0.016;2022-07-09T13:41:26;0.60;;;0.60;;
24901;SDS011;31328;51.402;0.016;2022-07-09T13:43:52;1.20;;;0.60;;
24901;SDS011;31328;51.402;0.016;2022-07-09T13:46:19;1.02;;;0.80;;
24901;SDS011;31328;51.402;0.016;2022-07-09T13:48:45;1.13;;;0.60;;
24901;SDS011;31328;51.402;0.016;2022-07-09T13:51:11;0.60;;;0.60;;
24901;SDS011;31328;51.402;0.016;2022-07-09T13:53:38;0.85;;;0.80;;
24901;SDS011;31328;51.402;0.016;2022-07-09T13:56:04;0.60;;;0.60;;
24901;SDS011;31328;51.402;0.016;2022-07-09T13:58:31;0.57;;;0.52;;
24901;SDS011;31328;51.402;0.016;2022-07-09T14:00:58;0.80;;;0.80;;
24901;SDS011;31328;51.402;0.016;2022-07-09T14:03:24;1.00;;;0.98;;
24901;SDS011;31328;51.402;0.016;2022-07-09T14:05:50;2.03;;;0.68;;
24901;SDS011;31328;51.402;0.016;2022-07-09T14:08:17;0.65;;;0.47;;
24901;SDS011;31328;51.402;0.016;2022-07-09T14:10:43;0.95;;;0.57;;
24901;SDS011;31328;51.402;0.016;2022-07-09T14:13:10;0.47;;;0.47;;
24901;SDS011;31328;51.402;0.016;2022-07-09T14:15:36;0.90;;;0.60;;
24901;SDS011;31328;51.402;0.016;2022-07-09T14:18:03;1.35;;;0.70;;
24901;SDS011;31328;51.402;0.016;2022-07-09T14:20:29;0.70;;;0.50;;
24901;SDS011;31328;51.402;0.016;2022-07-09T14:22:56;1.05;;;0.40;;
24901;SDS011;31328;51.402;0.016;2022-07-09T14:25:22;0.70;;;0.57;;
24901;SDS011;31328;51.402;0.016;2022-07-09T14:27:50;0.93;;;0.60;;
24901;SDS011;31328;51.402;0.016;2022-07-09T14:30:16;0.98;;;0.80;;
24901;SDS011;31328;51.402;0.016;2022-07-09T14:32:43;1.75;;;0.50;;
24901;SDS011;31328;51.402;0.016;2022-07-09T14:35:09;0.57;;;0.50;;
24901;SDS011;31328;51.402;0.016;2022-07-09T14:37:36;0.73;;;0.57;;
24901;SDS011;31328;51.402;0.016;2022-07-09T14:40:03;0.85;;;0.57;;
24901;SDS011;31328;51.402;0.016;2022-07-09T14:42:30;1.13;;;0.70;;
24901;SDS011;31328;51.402;0.016;2022-07-09T14:44:56;0.60;;;0.60;;
24901;SDS011;31328;51.402;0.016;2022-07-09T14:47:23;0.68;;;0.60;;
24901;SDS011;31328;51.402;0.016;2022-07-09T14:49:49;0.88;;;0.80;;
24901;SDS011;31328;51.402;0.016;2022-07-09T14:52:16;1.00;;;0.60;;
24901;SDS011;31328;51.402;0.016;2022-07-09T14:54:43;0.63;;;0.45;;
24901;SDS011;31328;51.402;0.016;2022-07-09T14:57:09;0.85;;;0.60;;
24901;SDS011;31328;51.402;0.016;2022-07-09T14:59:36;0.88;;;0.70;;
24901;SDS011;31328;51.402;0.016;2022-07-09T15:02:03;0.50;;;0.50;;
24901;SDS011;31328;51.402;0.016;2022-07-09T15:04:29;1.00;;;0.65;;
24901;SDS011;31328;51.402;0.016;2022-07-09T15:06:56;0.73;;;0.68;;